Time;durP1;ratioP1;P1;durP2;ratioP2;P2;SDS_P1;SDS_P2;PMS_P1;PMS_P2;Temp;Humidity;BMP_temperature;BMP_pressure;BME280_temperature;BME280_humidity;BME280_pressure;Samples;Min_cycle;Max_cycle;Signal;HPM_P1;HPM_P2
2023/04/14 00:01:03;;;;;;;7.85;2.47;;;8.50;79.50;;;;;;5115288;28;20040;-75
2023/04/14 00:03:29;;;;;;;5.72;2.22;;;8.20;79.60;;;;;;5097296;28;20024;-75
2023/04/14 00:05:55;;;;;;;6.53;2.60;;;8.30;80.30;;;;;;5115188;28;20028;-75
2023/04/14 00:08:20;;;;;;;5.55;2.00;;;8.20;80.50;;;;;;5115113;28;20091;-75
2023/04/14 00:10:46;;;;;;;5.20;2.40;;;8.10;80.60;;;;;;5113849;28;20025;-75
2023/04/14 00:13:12;;;;;;;5.57;2.00;;;8.10;80.40;;;;;;5115153;28;20484;-75
2023/04/14 00:15:40;;;;;;;4.85;2.05;;;8.10;80.50;;;;;;5114981;28;20098;-75
2023/04/14 00:18:05;;;;;;;9.23;2.30;;;8.10;80.50;;;;;;5115070;28;20087;-75
2023/04/14 00:20:31;;;;;;;7.63;2.58;;;8.20;80.70;;;;;;5114857;28;20035;-75
2023/04/14 00:22:57;;;;;;;4.43;1.90;;;8.20;80.30;;;;;;5114790;28;20044;-75
2023/04/14 00:25:22;;;;;;;3.70;1.80;;;8.20;79.80;;;;;;5113809;28;20086;-75
2023/04/14 00:27:48;;;;;;;4.65;1.55;;;8.20;79.70;;;;;;5114873;28;20372;-75
2023/04/14 00:30:14;;;;;;;6.45;2.15;;;8.30;80.00;;;;;;5114685;28;20036;-75
2023/04/14 00:32:39;;;;;;;5.93;1.58;;;8.30;79.60;;;;;;5114622;28;20021;-75
2023/04/14 00:35:05;;;;;;;2.88;1.70;;;8.30;79.60;;;;;;5113479;28;20058;-75
2023/04/14 00:37:31;;;;;;;3.65;1.80;;;8.30;79.60;;;;;;5114513;28;20049;-75
2023/04/14 00:39:56;;;;;;;7.78;2.08;;;8.30;79.30;;;;;;5114498;28;20044;-75
2023/04/14 00:42:22;;;;;;;4.80;1.98;;;8.30;78.80;;;;;;5114470;28;20080;-75
2023/04/14 00:44:48;;;;;;;6.28;1.70;;;8.10;78.80;;;;;;5114464;28;20031;-75
2023/04/14 00:47:15;;;;;;;5.05;1.73;;;8.00;78.90;;;;;;5114373;28;20032;-75
2023/04/14 00:49:40;;;;;;;5.95;2.30;;;7.90;79.00;;;;;;5114212;28;20040;-75
2023/04/14 00:52:06;;;;;;;7.13;2.10;;;7.80;79.30;;;;;;5114268;28;20091;-75
2023/04/14 00:54:34;;;;;;;5.20;2.00;;;7.70;79.40;;;;;;5114330;28;20080;-75
2023/04/14 00:57:01;;;;;;;3.67;1.75;;;7.60;79.60;;;;;;5114363;28;20031;-75
2023/04/14 00:59:28;;;;;;;7.20;2.00;;;7.50;79.90;;;;;;5114208;28;20020;-75
2023/04/14 01:01:55;;;;;;;6.13;2.00;;;7.50;80.20;;;;;;5113279;28;20028;-75
2023/04/14 01:04:21;;;;;;;5.45;2.05;;;7.50;80.70;;;;;;5114104;28;20024;-75
2023/04/14 01:06:47;;;;;;;4.90;2.00;;;7.40;80.70;;;;;;5114043;28;20106;-75
2023/04/14 01:09:15;;;;;;;6.15;2.17;;;7.40;81.00;;;;;;5113012;28;20032;-75
2023/04/14 01:12:06;;;;;;;7.30;2.17;;;7.40;81.00;;;;;;5113923;28;20028;-75
2023/04/14 01:14:49;;;;;;;6.05;2.00;;;7.40;81.00;;;;;;5114019;28;20039;-75
2023/04/14 01:17:52;;;;;;;3.95;2.00;;;7.40;81.20;;;;;;5114090;28;20066;-75
2023/04/14 01:20:28;;;;;;;6.50;1.92;;;7.40;81.80;;;;;;5071496;28;20032;-75
2023/04/14 01:23:19;;;;;;;6.13;2.10;;;7.40;81.60;;;;;;5113551;28;20114;-75
2023/04/14 01:26:05;;;;;;;3.75;2.10;;;7.40;81.40;;;;;;5112771;28;20084;-75
2023/04/14 01:29:09;;;;;;;6.45;2.15;;;7.50;81.60;;;;;;5113805;28;20037;-75
2023/04/14 01:31:45;;;;;;;6.30;1.90;;;7.50;81.40;;;;;;5113655;28;20472;-75
2023/04/14 01:34:30;;;;;;;4.68;1.85;;;7.40;81.90;;;;;;5113668;28;20103;-75
2023/04/14 01:37:13;;;;;;;3.10;1.70;;;7.30;82.40;;;;;;5113656;28;20032;-75
2023/04/14 01:39:44;;;;;;;4.70;1.75;;;7.30;82.00;;;;;;5113787;28;20080;-75
2023/04/14 01:42:16;;;;;;;5.05;2.08;;;7.30;82.10;;;;;;5113629;28;20031;-75
2023/04/14 01:44:42;;;;;;;4.57;1.90;;;7.40;82.10;;;;;;5113582;28;20028;-75
2023/04/14 01:47:12;;;;;;;4.40;1.92;;;7.40;82.00;;;;;;5113512;28;20028;-75
2023/04/14 01:49:39;;;;;;;5.75;2.00;;;7.50;82.10;;;;;;5113326;28;20040;-75
2023/04/14 01:52:08;;;;;;;5.45;2.03;;;7.50;81.80;;;;;;5112386;28;20095;-75
2023/04/14 01:54:37;;;;;;;4.85;2.35;;;7.60;81.40;;;;;;5112480;28;20051;-75
2023/04/14 01:57:05;;;;;;;6.03;2.00;;;7.60;81.20;;;;;;5113616;28;20162;-75
2023/04/14 01:59:33;;;;;;;6.20;1.75;;;7.60;81.50;;;;;;5113431;28;20020;-75
2023/04/14 02:02:02;;;;;;;5.70;1.95;;;7.60;81.80;;;;;;5113372;28;20035;-75
2023/04/14 02:04:29;;;;;;;8.73;2.20;;;7.60;81.90;;;;;;5113381;28;20027;-75
2023/04/14 02:06:58;;;;;;;5.45;1.92;;;7.60;81.80;;;;;;5112328;28;20020;-75
2023/04/14 02:09:26;;;;;;;4.60;2.15;;;7.50;81.80;;;;;;5112535;28;20051;-75
2023/04/14 02:11:53;;;;;;;3.50;1.73;;;7.50;81.90;;;;;;5113390;28;20022;-75
2023/04/14 02:14:21;;;;;;;6.22;1.80;;;7.40;81.90;;;;;;5113279;28;20028;-75
2023/04/14 02:16:49;;;;;;;3.85;2.00;;;7.30;82.30;;;;;;5113244;28;20076;-75
2023/04/14 02:19:20;;;;;;;5.00;2.08;;;7.40;82.60;;;;;;5113244;28;20017;-75
2023/04/14 02:21:50;;;;;;;5.75;2.05;;;7.40;82.90;;;;;;5113387;28;20040;-75
2023/04/14 02:24:16;;;;;;;6.90;2.50;;;7.40;82.70;;;;;;5113191;28;20039;-75
2023/04/14 02:26:57;;;;;;;4.90;2.20;;;7.40;82.10;;;;;;5113197;28;20031;-75
2023/04/14 02:29:25;;;;;;;4.45;2.20;;;7.20;82.30;;;;;;5112151;28;20024;-75
2023/04/14 02:32:05;;;;;;;7.25;2.08;;;7.20;83.40;;;;;;5113160;28;20028;-75
2023/04/14 02:34:34;;;;;;;7.03;2.08;;;7.20;83.70;;;;;;5116965;28;20039;-75
2023/04/14 02:37:13;;;;;;;6.95;2.03;;;7.20;83.90;;;;;;5115981;28;20370;-75
2023/04/14 02:39:43;;;;;;;4.57;2.20;;;7.30;84.00;;;;;;5115911;28;20016;-75
2023/04/14 02:42:14;;;;;;;6.93;2.30;;;7.10;83.90;;;;;;5116902;28;20032;-75
2023/04/14 02:44:55;;;;;;;5.10;2.22;;;7.00;84.20;;;;;;5116847;28;20050;-75
2023/04/14 02:47:44;;;;;;;3.53;1.77;;;7.00;84.50;;;;;;5115839;28;20035;-75
2023/04/14 02:50:13;;;;;;;5.70;2.10;;;7.10;84.40;;;;;;5116885;28;20028;-75
2023/04/14 02:52:41;;;;;;;6.38;2.05;;;7.10;84.50;;;;;;5116582;28;20024;-75
2023/04/14 02:55:09;;;;;;;3.05;2.28;;;7.10;84.40;;;;;;5116622;28;20028;-75
2023/04/14 02:57:36;;;;;;;4.95;1.85;;;7.00;84.40;;;;;;5116520;28;20043;-75
2023/04/14 03:00:04;;;;;;;7.53;2.30;;;7.10;84.70;;;;;;5116486;28;20043;-75
2023/04/14 03:02:31;;;;;;;3.25;2.00;;;7.10;84.60;;;;;;5116671;28;20032;-75
2023/04/14 03:04:58;;;;;;;7.18;2.30;;;7.00;84.40;;;;;;5116443;28;20046;-75
2023/04/14 03:07:26;;;;;;;6.53;2.50;;;7.00;84.70;;;;;;5116370;28;20032;-75
2023/04/14 03:09:52;;;;;;;4.80;2.08;;;6.90;85.10;;;;;;5116341;28;20083;-75
2023/04/14 03:12:19;;;;;;;6.10;2.03;;;6.90;85.00;;;;;;5116158;28;20062;-75
2023/04/14 03:14:45;;;;;;;3.42;2.17;;;6.80;84.70;;;;;;5116199;28;20511;-75
2023/04/14 03:17:13;;;;;;;6.20;2.20;;;6.80;84.80;;;;;;5116136;28;20043;-75
2023/04/14 03:19:40;;;;;;;4.18;1.85;;;6.90;84.60;;;;;;5116150;28;20042;-75
2023/04/14 03:22:09;;;;;;;5.93;2.00;;;6.90;84.20;;;;;;5116085;28;20020;-75
2023/04/14 03:24:36;;;;;;;4.70;2.00;;;6.90;83.90;;;;;;5116005;28;20028;-75
2023/04/14 03:27:09;;;;;;;4.00;1.73;;;6.90;83.70;;;;;;5116016;28;20043;-75
2023/04/14 03:29:47;;;;;;;5.10;1.98;;;7.00;83.60;;;;;;5115987;28;20020;-75
2023/04/14 03:32:15;;;;;;;3.83;2.22;;;6.90;83.50;;;;;;5115898;28;20028;-76
2023/04/14 03:34:42;;;;;;;5.72;1.88;;;6.90;83.40;;;;;;5114776;28;20043;-75
2023/04/14 03:37:10;;;;;;;4.28;1.90;;;6.80;83.50;;;;;;5115789;28;20075;-75
2023/04/14 03:39:38;;;;;;;4.80;1.88;;;6.80;84.00;;;;;;5115736;28;20095;-75
2023/04/14 03:42:09;;;;;;;3.38;1.90;;;6.80;84.00;;;;;;5115879;28;20032;-75
2023/04/14 03:44:37;;;;;;;4.18;1.90;;;6.80;83.80;;;;;;5115052;28;20031;-75
2023/04/14 03:47:06;;;;;;;2.90;1.52;;;6.80;83.60;;;;;;5115604;28;20028;-75
2023/04/14 03:49:35;;;;;;;4.03;1.60;;;6.80;83.50;;;;;;5115370;28;20032;-75
2023/04/14 03:52:04;;;;;;;4.55;1.73;;;6.80;83.50;;;;;;5115425;28;20055;-75
2023/04/14 03:54:31;;;;;;;3.13;1.75;;;6.90;83.40;;;;;;5115486;28;20071;-75
2023/04/14 03:56:59;;;;;;;5.82;1.88;;;6.90;83.50;;;;;;5115260;28;20016;-75
2023/04/14 03:59:27;;;;;;;2.95;1.58;;;6.90;83.40;;;;;;5115295;28;20024;-75
2023/04/14 04:01:54;;;;;;;4.07;2.00;;;6.90;83.40;;;;;;5114369;28;20031;-75
2023/04/14 04:04:22;;;;;;;6.47;2.28;;;6.80;83.50;;;;;;5115252;28;20080;-75
2023/04/14 04:06:49;;;;;;;4.95;2.03;;;6.80;83.70;;;;;;5115205;28;20024;-75
2023/04/14 04:09:16;;;;;;;3.72;1.77;;;6.80;83.80;;;;;;5115150;28;20035;-75
2023/04/14 04:11:45;;;;;;;3.10;1.63;;;6.80;83.70;;;;;;5114051;28;20051;-75
2023/04/14 04:14:13;;;;;;;4.78;2.03;;;6.70;83.90;;;;;;5115077;28;20020;-75
2023/04/14 04:16:42;;;;;;;4.95;1.70;;;6.60;84.40;;;;;;5115049;28;20111;-75
2023/04/14 04:19:12;;;;;;;6.20;2.17;;;6.50;84.60;;;;;;5114833;28;20020;-75
2023/04/14 04:21:41;;;;;;;2.65;1.73;;;6.50;84.90;;;;;;5114896;28;20024;-75
2023/04/14 04:24:09;;;;;;;7.07;2.13;;;6.50;85.00;;;;;;5114983;28;20042;-76
2023/04/14 04:26:34;;;;;;;3.63;2.00;;;6.50;85.30;;;;;;5114824;28;20036;-76
2023/04/14 04:29:02;;;;;;;4.88;2.03;;;6.50;85.50;;;;;;5114916;28;20024;-76
2023/04/14 04:31:28;;;;;;;10.88;2.60;;;6.50;85.60;;;;;;5114671;28;20028;-75
2023/04/14 04:33:55;;;;;;;6.68;1.98;;;6.60;85.50;;;;;;5114621;28;20062;-75
2023/04/14 04:36:22;;;;;;;5.18;2.28;;;6.60;85.50;;;;;;5114681;28;20023;-75
2023/04/14 04:38:49;;;;;;;4.40;1.98;;;6.60;85.50;;;;;;5114725;28;20048;-75
2023/04/14 04:41:28;;;;;;;5.60;2.13;;;6.60;85.40;;;;;;5114541;28;20075;-75
2023/04/14 04:43:55;;;;;;;4.20;2.22;;;6.60;85.10;;;;;;5113619;28;20020;-75
2023/04/14 04:46:52;;;;;;;7.53;2.38;;;6.60;84.90;;;;;;5114493;28;20111;-75
2023/04/14 04:49:18;;;;;;;7.32;2.55;;;6.60;84.90;;;;;;5114086;28;20040;-75
2023/04/14 04:51:44;;;;;;;4.80;1.88;;;6.60;85.00;;;;;;5114226;28;20036;-76
2023/04/14 04:54:10;;;;;;;4.72;2.65;;;6.70;85.00;;;;;;5114307;28;20088;-75
2023/04/14 04:56:35;;;;;;;5.00;2.00;;;6.60;84.70;;;;;;5112294;28;20099;-75
2023/04/14 04:59:01;;;;;;;4.03;2.10;;;6.50;84.50;;;;;;5114377;28;20027;-75
2023/04/14 05:01:27;;;;;;;7.45;2.42;;;6.40;85.00;;;;;;5114206;28;20020;-75
2023/04/14 05:03:53;;;;;;;10.05;2.75;;;6.40;85.60;;;;;;5114134;28;20028;-75
2023/04/14 05:06:18;;;;;;;5.28;2.22;;;6.40;85.80;;;;;;5113165;28;20051;-75
2023/04/14 05:08:44;;;;;;;4.55;1.80;;;6.40;85.90;;;;;;5113010;28;20039;-75
2023/04/14 05:11:10;;;;;;;4.57;2.03;;;6.40;85.90;;;;;;5113933;28;20035;-75
2023/04/14 05:13:35;;;;;;;5.70;2.25;;;6.50;85.90;;;;;;5113025;28;20055;-75
2023/04/14 05:16:03;;;;;;;8.38;2.35;;;6.40;85.90;;;;;;5113901;28;20084;-75
2023/04/14 05:18:30;;;;;;;6.53;1.92;;;6.40;86.20;;;;;;5113935;28;20024;-76
2023/04/14 05:21:00;;;;;;;6.97;2.30;;;6.40;86.50;;;;;;5112926;28;20031;-76
2023/04/14 05:23:25;;;;;;;7.38;2.38;;;6.40;86.70;;;;;;5112906;28;20040;-75
2023/04/14 05:25:54;;;;;;;7.68;2.28;;;6.40;87.00;;;;;;5112917;28;20039;-75
2023/04/14 05:28:20;;;;;;;5.20;2.42;;;6.40;86.80;;;;;;5112858;28;20028;-75
2023/04/14 05:30:45;;;;;;;6.78;2.20;;;6.40;87.10;;;;;;5113614;28;20092;-75
2023/04/14 05:33:11;;;;;;;4.40;2.38;;;6.40;87.00;;;;;;5113612;28;20088;-75
2023/04/14 05:35:37;;;;;;;4.38;2.28;;;6.50;87.60;;;;;;5112779;28;20028;-75
2023/04/14 05:38:02;;;;;;;5.47;2.28;;;6.40;87.90;;;;;;5113602;28;20024;-75
2023/04/14 05:40:28;;;;;;;9.23;2.53;;;6.40;88.20;;;;;;5113556;28;20054;-75
2023/04/14 05:42:54;;;;;;;6.32;2.53;;;6.50;88.10;;;;;;5113529;28;20088;-75
2023/04/14 05:45:20;;;;;;;7.35;2.58;;;6.50;88.20;;;;;;5113514;28;20028;-76
2023/04/14 05:47:46;;;;;;;7.03;2.95;;;6.60;88.20;;;;;;5112635;28;20032;-75
2023/04/14 05:50:11;;;;;;;7.05;3.50;;;6.60;87.90;;;;;;5095796;28;20059;-75
2023/04/14 05:52:37;;;;;;;7.13;3.10;;;6.60;88.10;;;;;;5113407;28;20032;-75
2023/04/14 05:55:03;;;;;;;6.70;3.38;;;6.60;88.30;;;;;;5113442;28;20028;-75
2023/04/14 05:57:28;;;;;;;7.20;2.92;;;6.60;88.90;;;;;;5113546;28;20028;-75
2023/04/14 05:59:54;;;;;;;6.22;2.55;;;6.60;89.80;;;;;;5113404;28;20027;-75
2023/04/14 06:02:19;;;;;;;9.23;2.80;;;6.60;90.10;;;;;;5113347;28;20039;-75
2023/04/14 06:04:46;;;;;;;5.40;2.42;;;6.60;90.10;;;;;;5112326;28;20037;-76
2023/04/14 06:07:11;;;;;;;6.30;3.13;;;6.60;90.10;;;;;;5114120;28;20095;-75
2023/04/14 06:09:37;;;;;;;5.05;2.78;;;6.70;90.40;;;;;;5117472;28;20032;-75
2023/04/14 06:12:02;;;;;;;7.82;3.47;;;6.70;90.80;;;;;;5117312;28;20028;-75
2023/04/14 06:14:28;;;;;;;6.68;3.00;;;6.70;90.80;;;;;;5117524;28;20050;-75
2023/04/14 06:16:54;;;;;;;10.20;3.20;;;6.70;90.70;;;;;;5117299;28;20040;-75
2023/04/14 06:19:19;;;;;;;7.35;2.63;;;6.70;91.00;;;;;;5117310;28;20020;-75
2023/04/14 06:21:45;;;;;;;10.10;3.20;;;6.70;91.00;;;;;;5117395;28;20526;-75
2023/04/14 06:24:11;;;;;;;11.57;2.88;;;6.70;91.00;;;;;;5117264;28;20028;-75
2023/04/14 06:26:37;;;;;;;12.32;3.33;;;6.70;91.20;;;;;;5117124;28;20025;-75
2023/04/14 06:29:04;;;;;;;6.55;2.80;;;6.70;91.70;;;;;;5116084;28;20480;-76
2023/04/14 06:31:29;;;;;;;6.18;2.90;;;6.70;92.30;;;;;;5117004;28;20024;-76
2023/04/14 06:33:55;;;;;;;4.57;2.55;;;6.70;92.60;;;;;;5116950;28;20020;-75
2023/04/14 06:36:20;;;;;;;7.03;3.10;;;6.70;92.60;;;;;;5115945;28;20472;-75
2023/04/14 06:38:46;;;;;;;7.50;3.00;;;6.80;92.80;;;;;;5115758;28;20028;-75
2023/04/14 06:41:12;;;;;;;7.55;3.08;;;6.80;93.00;;;;;;5115782;28;20035;-75
2023/04/14 06:43:37;;;;;;;8.32;3.50;;;6.90;93.40;;;;;;5116766;28;20114;-75
2023/04/14 06:46:03;;;;;;;7.72;2.88;;;6.90;93.50;;;;;;5116754;28;20035;-75
2023/04/14 06:48:29;;;;;;;6.32;2.53;;;7.00;93.60;;;;;;5116563;28;20059;-75
2023/04/14 06:50:55;;;;;;;9.13;3.05;;;7.20;93.50;;;;;;5115703;28;20053;-75
2023/04/14 06:53:22;;;;;;;5.63;2.40;;;7.30;93.50;;;;;;5115650;28;20056;-75
2023/04/14 06:55:50;;;;;;;10.10;3.65;;;7.40;93.70;;;;;;5116638;28;20465;-75
2023/04/14 06:58:16;;;;;;;6.93;3.08;;;7.50;93.60;;;;;;5116576;28;20020;-75
2023/04/14 07:00:42;;;;;;;8.32;3.15;;;7.60;93.20;;;;;;5116499;28;20050;-75
2023/04/14 07:03:08;;;;;;;10.00;3.35;;;7.70;92.80;;;;;;5116584;28;20028;-75
2023/04/14 07:05:33;;;;;;;7.50;3.03;;;7.80;92.60;;;;;;5116592;28;20080;-75
2023/04/14 07:07:59;;;;;;;4.75;2.50;;;8.00;92.50;;;;;;5116340;28;20029;-75
2023/04/14 07:10:25;;;;;;;4.95;2.17;;;8.10;92.80;;;;;;5116316;28;20080;-75
2023/04/14 07:12:50;;;;;;;6.50;2.75;;;8.20;92.60;;;;;;5116319;28;20027;-77
2023/04/14 07:15:16;;;;;;;6.85;2.70;;;8.30;92.10;;;;;;5116222;28;20035;-76
2023/04/14 07:17:42;;;;;;;6.97;2.83;;;8.40;92.00;;;;;;5116210;28;20032;-76
2023/04/14 07:20:08;;;;;;;6.25;2.80;;;8.40;91.90;;;;;;5114022;28;20107;-76
2023/04/14 07:22:33;;;;;;;8.07;2.53;;;8.50;92.00;;;;;;5116089;28;20024;-76
2023/04/14 07:24:59;;;;;;;8.90;2.83;;;8.60;92.20;;;;;;5116034;28;20039;-75
2023/04/14 07:27:27;;;;;;;8.95;3.45;;;8.70;91.40;;;;;;5115977;28;20066;-76
2023/04/14 07:29:53;;;;;;;7.55;3.30;;;8.90;91.90;;;;;;5115064;28;20024;-76
2023/04/14 07:32:18;;;;;;;9.55;3.00;;;9.00;91.40;;;;;;5115850;28;20028;-76
2023/04/14 07:34:44;;;;;;;9.60;3.40;;;9.10;91.30;;;;;;5115779;28;20054;-76
2023/04/14 07:37:10;;;;;;;7.63;2.95;;;9.10;91.30;;;;;;5115801;28;20032;-76
2023/04/14 07:39:36;;;;;;;8.55;3.17;;;9.30;91.10;;;;;;5115721;28;20021;-75
2023/04/14 07:42:01;;;;;;;5.78;2.70;;;9.30;91.20;;;;;;5115715;28;20526;-75
2023/04/14 07:44:27;;;;;;;8.02;2.85;;;9.20;90.80;;;;;;5115652;28;20120;-76
2023/04/14 07:46:52;;;;;;;6.68;3.08;;;9.30;90.90;;;;;;5115621;28;20043;-76
2023/04/14 07:49:18;;;;;;;7.20;3.05;;;9.40;90.60;;;;;;5115406;28;20094;-76
2023/04/14 07:51:44;;;;;;;4.63;2.35;;;9.40;91.10;;;;;;5115460;28;20088;-76
2023/04/14 07:54:10;;;;;;;7.70;2.67;;;9.50;90.40;;;;;;5115445;28;20031;-76
2023/04/14 07:56:35;;;;;;;6.47;2.45;;;9.50;89.80;;;;;;5115458;28;20016;-76
2023/04/14 07:59:01;;;;;;;6.72;2.47;;;9.60;88.70;;;;;;5115381;28;20038;-75
2023/04/14 08:01:27;;;;;;;8.13;3.13;;;9.70;88.80;;;;;;5115476;28;20056;-75
2023/04/14 08:03:53;;;;;;;12.18;3.00;;;9.80;88.30;;;;;;5115347;28;20016;-75
2023/04/14 08:06:20;;;;;;;5.82;2.50;;;9.90;88.80;;;;;;5115390;28;20024;-75
2023/04/14 08:08:46;;;;;;;5.85;2.60;;;10.00;90.10;;;;;;5115245;28;20047;-75
2023/04/14 08:11:12;;;;;;;4.75;2.60;;;10.10;89.10;;;;;;5115116;28;20020;-76
2023/04/14 08:13:37;;;;;;;5.40;3.03;;;10.20;88.80;;;;;;5115111;28;20023;-76
2023/04/14 08:16:03;;;;;;;7.32;2.22;;;10.40;89.60;;;;;;5114962;28;20024;-76
2023/04/14 08:18:29;;;;;;;5.75;2.45;;;10.50;88.30;;;;;;5114117;28;20024;-76
2023/04/14 08:20:55;;;;;;;7.68;2.78;;;10.60;86.80;;;;;;5114914;28;20024;-76
2023/04/14 08:23:21;;;;;;;6.70;2.42;;;10.70;83.50;;;;;;5114932;28;20024;-76
2023/04/14 08:25:47;;;;;;;5.70;2.28;;;10.70;84.50;;;;;;5113922;28;20081;-76
2023/04/14 08:28:13;;;;;;;5.35;2.50;;;10.70;84.10;;;;;;5113801;28;20027;-76
2023/04/14 08:30:38;;;;;;;3.75;1.63;;;10.90;84.40;;;;;;5113663;28;20056;-76
2023/04/14 08:33:04;;;;;;;5.75;1.80;;;10.90;83.00;;;;;;5114554;28;20028;-76
2023/04/14 08:35:30;;;;;;;7.57;2.05;;;10.90;83.10;;;;;;5114656;28;20039;-76
2023/04/14 08:37:59;;;;;;;4.55;1.98;;;11.00;83.00;;;;;;5114612;28;20027;-76
2023/04/14 08:40:34;;;;;;;11.55;2.15;;;11.10;84.60;;;;;;5114527;28;20051;-76
2023/04/14 08:43:00;;;;;;;7.20;1.80;;;11.30;84.70;;;;;;5114589;28;20024;-76
2023/04/14 08:45:27;;;;;;;5.15;1.75;;;11.40;81.50;;;;;;5114455;28;20101;-76
2023/04/14 08:47:55;;;;;;;5.20;1.85;;;11.40;80.50;;;;;;5114228;28;20085;-76
2023/04/14 08:50:24;;;;;;;4.80;1.55;;;11.50;79.50;;;;;;5114451;28;20057;-76
2023/04/14 08:52:54;;;;;;;5.95;2.20;;;11.60;78.40;;;;;;5114318;28;20032;-76
2023/04/14 08:55:20;;;;;;;2.65;1.05;;;11.60;77.00;;;;;;5114319;28;20032;-76
2023/04/14 08:57:47;;;;;;;3.97;1.55;;;11.60;80.30;;;;;;5113221;28;20092;-76
2023/04/14 09:00:14;;;;;;;4.68;1.75;;;11.80;81.50;;;;;;5114255;28;20035;-76
2023/04/14 09:02:41;;;;;;;6.00;1.55;;;11.80;79.00;;;;;;5096505;28;20028;-76
2023/04/14 09:05:08;;;;;;;6.13;2.10;;;11.90;79.50;;;;;;5114162;28;20036;-76
2023/04/14 09:07:34;;;;;;;4.32;1.42;;;12.00;79.90;;;;;;5114086;28;20051;-76
2023/04/14 09:09:59;;;;;;;8.18;2.10;;;12.00;77.60;;;;;;5114034;28;20032;-76
2023/04/14 09:12:27;;;;;;;5.55;1.52;;;12.10;78.10;;;;;;5113105;28;20031;-76
2023/04/14 09:14:53;;;;;;;7.25;1.63;;;12.10;76.40;;;;;;5114001;28;20028;-76
2023/04/14 09:17:19;;;;;;;5.55;1.27;;;12.20;74.00;;;;;;5113942;28;20054;-76
2023/04/14 09:19:46;;;;;;;4.10;1.10;;;12.20;72.60;;;;;;5113989;28;20077;-76
2023/04/14 09:22:12;;;;;;;3.35;1.35;;;12.30;72.60;;;;;;5113905;28;20028;-76
2023/04/14 09:24:38;;;;;;;3.92;1.27;;;12.30;71.80;;;;;;5113794;28;20058;-76
2023/04/14 09:27:04;;;;;;;3.88;1.42;;;12.30;72.40;;;;;;5113769;28;20044;-75
2023/04/14 09:29:33;;;;;;;3.88;2.08;;;12.40;73.60;;;;;;5113780;28;20539;-76
2023/04/14 09:31:59;;;;;;;4.80;1.40;;;12.50;75.30;;;;;;5113635;28;20024;-76
2023/04/14 09:34:25;;;;;;;4.88;1.40;;;12.50;73.80;;;;;;5113724;28;20046;-76
2023/04/14 09:37:04;;;;;;;3.10;1.50;;;12.50;73.10;;;;;;5113661;28;20017;-76
2023/04/14 09:39:32;;;;;;;4.05;1.48;;;12.60;73.70;;;;;;5113628;28;20070;-75
2023/04/14 09:41:59;;;;;;;5.25;1.15;;;12.60;73.10;;;;;;5113064;28;20031;-75
2023/04/14 09:44:50;;;;;;;3.03;1.20;;;12.60;74.20;;;;;;5113516;28;20039;-75
2023/04/14 09:47:19;;;;;;;2.30;1.27;;;12.70;71.80;;;;;;5113519;28;20032;-75
2023/04/14 09:50:43;;;;;;;6.05;1.67;;;12.80;72.20;;;;;;5113397;28;20111;-76
2023/04/14 09:53:09;;;;;;;3.17;1.20;;;12.90;73.50;;;;;;5057472;28;20072;-76
2023/04/14 09:55:35;;;;;;;2.58;1.05;;;13.00;70.70;;;;;;5113545;28;20035;-75
2023/04/14 09:58:01;;;;;;;2.47;0.90;;;13.00;71.00;;;;;;5113573;28;20028;-75
2023/04/14 10:00:27;;;;;;;3.92;1.27;;;13.00;66.40;;;;;;5113443;28;20023;-75
2023/04/14 10:02:54;;;;;;;3.63;1.10;;;13.10;70.60;;;;;;5112573;28;20053;-75
2023/04/14 10:05:28;;;;;;;2.83;1.00;;;13.20;69.60;;;;;;5113416;28;20020;-75
2023/04/14 10:07:54;;;;;;;6.38;1.50;;;13.40;68.50;;;;;;5113570;28;20058;-75
2023/04/14 10:10:21;;;;;;;4.32;1.52;;;13.50;66.90;;;;;;5095564;28;20024;-76
2023/04/14 10:12:47;;;;;;;6.80;1.50;;;13.60;68.40;;;;;;5113240;28;20031;-76
2023/04/14 10:15:14;;;;;;;4.60;1.20;;;13.50;67.00;;;;;;5113269;28;20028;-76
2023/04/14 10:17:41;;;;;;;2.10;0.80;;;13.60;67.00;;;;;;5113268;28;20080;-76
2023/04/14 10:20:07;;;;;;;3.83;0.80;;;13.70;66.20;;;;;;5113275;28;20040;-76
2023/04/14 10:22:33;;;;;;;4.93;1.27;;;13.50;61.90;;;;;;5113184;28;20039;-76
2023/04/14 10:25:00;;;;;;;4.65;1.40;;;13.50;64.30;;;;;;5113138;28;20028;-76
2023/04/14 10:27:29;;;;;;;4.65;1.42;;;13.60;65.60;;;;;;5113158;28;20395;-76
2023/04/14 10:29:56;;;;;;;6.50;1.60;;;13.70;66.40;;;;;;5113002;28;20027;-76
2023/04/14 10:32:23;;;;;;;5.57;1.05;;;13.70;63.90;;;;;;5113065;28;20020;-76
2023/04/14 10:35:08;;;;;;;4.57;1.25;;;13.70;66.20;;;;;;5113042;28;20047;-76
2023/04/14 10:37:34;;;;;;;3.90;1.20;;;13.80;65.10;;;;;;5113110;28;20031;-76
2023/04/14 10:40:04;;;;;;;3.28;1.42;;;13.90;64.20;;;;;;5112220;28;20076;-77
2023/04/14 10:42:51;;;;;;;3.60;1.10;;;13.90;67.60;;;;;;5112033;28;20027;-76
2023/04/14 10:45:16;;;;;;;4.82;1.33;;;14.00;62.60;;;;;;5113204;28;20046;-75
2023/04/14 10:47:44;;;;;;;3.28;1.05;;;14.00;62.10;;;;;;5111761;28;20032;-75
2023/04/14 10:50:17;;;;;;;3.70;0.93;;;14.00;64.40;;;;;;5112129;28;20024;-76
2023/04/14 10:52:54;;;;;;;2.67;1.08;;;14.10;62.80;;;;;;5112140;28;20077;-76
2023/04/14 10:55:24;;;;;;;3.17;1.23;;;14.00;62.20;;;;;;5116711;28;20027;-76
2023/04/14 10:57:50;;;;;;;3.25;0.90;;;13.80;61.40;;;;;;5115743;28;20084;-76
2023/04/14 11:00:18;;;;;;;3.58;1.25;;;13.70;60.00;;;;;;5116543;28;20404;-76
2023/04/14 11:02:57;;;;;;;4.20;0.95;;;13.80;62.10;;;;;;5116444;28;20027;-76
2023/04/14 11:05:24;;;;;;;3.58;1.00;;;13.90;65.00;;;;;;5116321;28;20430;-76
2023/04/14 11:07:56;;;;;;;2.38;1.35;;;13.90;63.80;;;;;;5115342;28;20016;-76
2023/04/14 11:10:22;;;;;;;2.25;0.70;;;14.00;64.40;;;;;;5098552;28;20032;-76
2023/04/14 11:13:00;;;;;;;3.78;1.20;;;14.00;61.20;;;;;;5116283;28;20084;-76
2023/04/14 11:15:47;;;;;;;1.75;0.95;;;14.10;63.20;;;;;;5116432;28;20008;-76
2023/04/14 11:18:18;;;;;;;3.83;1.30;;;14.30;61.10;;;;;;5116216;28;20042;-76
2023/04/14 11:20:44;;;;;;;3.05;0.82;;;14.40;62.50;;;;;;5116021;28;20024;-76
2023/04/14 11:23:12;;;;;;;1.50;0.75;;;14.50;60.10;;;;;;5115830;28;20023;-76
2023/04/14 11:25:39;;;;;;;4.28;0.93;;;14.50;61.30;;;;;;5116082;28;20095;-76
2023/04/14 11:28:04;;;;;;;4.60;1.30;;;14.40;57.20;;;;;;5116178;28;20044;-76
2023/04/14 11:30:31;;;;;;;2.67;0.95;;;14.30;56.60;;;;;;5114911;28;20102;-76
2023/04/14 11:32:57;;;;;;;5.00;1.30;;;14.30;59.90;;;;;;5114939;28;20057;-76
2023/04/14 11:35:24;;;;;;;3.28;1.10;;;14.50;60.00;;;;;;5115633;28;20027;-76
2023/04/14 11:37:54;;;;;;;3.08;1.08;;;14.60;60.80;;;;;;5115867;28;20020;-76
2023/04/14 11:40:21;;;;;;;2.08;1.05;;;14.70;59.60;;;;;;5115780;28;20031;-76
2023/04/14 11:42:57;;;;;;;4.03;1.40;;;14.70;59.20;;;;;;5115767;28;20111;-76
2023/04/14 11:45:29;;;;;;;4.25;0.98;;;14.80;59.30;;;;;;5115763;28;20465;-76
2023/04/14 11:48:00;;;;;;;5.10;1.52;;;14.90;61.20;;;;;;5115474;28;20059;-76
2023/04/14 11:50:28;;;;;;;4.72;1.45;;;15.10;60.00;;;;;;5097955;28;20035;-76
2023/04/14 11:52:56;;;;;;;2.25;0.80;;;15.10;56.00;;;;;;5114590;28;20084;-76
2023/04/14 11:55:22;;;;;;;4.65;1.27;;;14.90;56.80;;;;;;5115647;28;20012;-76
2023/04/14 11:57:48;;;;;;;4.45;1.40;;;14.80;57.50;;;;;;5115438;28;20051;-76
2023/04/14 12:00:14;;;;;;;4.20;0.93;;;14.60;58.20;;;;;;5114424;28;20038;-76
2023/04/14 12:02:44;;;;;;;2.05;0.98;;;14.60;55.30;;;;;;5115343;28;20100;-76
2023/04/14 12:05:12;;;;;;;2.72;1.08;;;14.80;60.10;;;;;;5114725;28;20458;-76
2023/04/14 12:07:40;;;;;;;1.55;0.80;;;15.00;53.60;;;;;;5115280;28;20020;-76
2023/04/14 12:10:07;;;;;;;2.38;1.02;;;14.90;52.20;;;;;;5114152;28;20062;-76
2023/04/14 12:12:32;;;;;;;5.68;1.20;;;14.80;53.70;;;;;;5115126;28;20051;-76
2023/04/14 12:14:58;;;;;;;1.80;0.80;;;14.90;58.60;;;;;;5115069;28;20043;-76
2023/04/14 12:17:24;;;;;;;2.08;0.68;;;14.90;55.90;;;;;;5115069;28;20016;-75
2023/04/14 12:19:51;;;;;;;3.25;0.80;;;15.10;55.30;;;;;;5115020;28;20024;-75
2023/04/14 12:22:28;;;;;;;3.45;1.00;;;15.20;52.30;;;;;;5113980;28;20115;-76
2023/04/14 12:24:56;;;;;;;1.92;0.80;;;15.30;52.40;;;;;;5113889;28;20024;-76
2023/04/14 12:27:23;;;;;;;3.42;0.90;;;15.30;51.80;;;;;;5114853;28;20031;-76
2023/04/14 12:29:49;;;;;;;2.72;0.90;;;15.20;52.30;;;;;;5113860;28;20054;-76
2023/04/14 12:32:16;;;;;;;2.88;0.80;;;15.00;53.00;;;;;;5114741;28;20035;-76
2023/04/14 12:34:57;;;;;;;3.17;1.08;;;14.90;51.80;;;;;;5114655;28;20028;-76
2023/04/14 12:37:27;;;;;;;3.67;1.00;;;14.90;51.10;;;;;;5113643;28;20020;-75
2023/04/14 12:39:59;;;;;;;3.13;0.80;;;15.00;51.10;;;;;;5114837;28;20023;-76
2023/04/14 12:42:41;;;;;;;2.33;0.90;;;15.00;52.30;;;;;;5114793;28;20075;-76
2023/04/14 12:45:08;;;;;;;3.13;1.00;;;15.00;51.60;;;;;;5114558;28;20032;-76
2023/04/14 12:47:34;;;;;;;4.47;1.00;;;15.20;51.90;;;;;;5114241;28;20035;-76
2023/04/14 12:50:20;;;;;;;4.85;1.08;;;15.30;51.40;;;;;;5114399;28;20095;-76
2023/04/14 12:52:46;;;;;;;2.78;0.55;;;15.60;51.50;;;;;;5114347;28;20051;-76
2023/04/14 12:55:26;;;;;;;1.88;0.60;;;15.70;49.30;;;;;;5114319;28;20021;-76
2023/04/14 12:57:57;;;;;;;3.25;0.73;;;15.70;43.90;;;;;;5113415;28;20024;-76
2023/04/14 13:00:27;;;;;;;3.20;0.90;;;15.60;42.60;;;;;;5113264;28;20039;-76